sensor_id;sensor_type;location;lat;lon;timestamp;temperature;humidity
4187;DHT22;2107;52.306;10.484;2023-04-03T00:02:00;-0.70;99.90
4187;DHT22;2107;52.306;10.484;2023-04-03T00:04:27;-0.80;99.90
4187;DHT22;2107;52.306;10.484;2023-04-03T00:06:55;-0.70;99.90
4187;DHT22;2107;52.306;10.484;2023-04-03T00:09:22;-0.80;99.90
4187;DHT22;2107;52.306;10.484;2023-04-03T00:11:49;-0.90;99.90
4187;DHT22;2107;52.306;10.484;2023-04-03T00:14:16;-0.80;99.90
4187;DHT22;2107;52.306;10.484;2023-04-03T00:16:42;-0.80;99.90
4187;DHT22;2107;52.306;10.484;2023-04-03T00:19:10;-0.90;99.90
4187;DHT22;2107;52.306;10.484;2023-04-03T00:21:38;-0.90;99.90
4187;DHT22;2107;52.306;10.484;2023-04-03T00:24:07;-0.90;99.90
4187;DHT22;2107;52.306;10.484;2023-04-03T00:26:34;-1.00;99.90
4187;DHT22;2107;52.306;10.484;2023-04-03T00:29:00;-1.00;99.90
4187;DHT22;2107;52.306;10.484;2023-04-03T00:31:27;-1.10;99.90
4187;DHT22;2107;52.306;10.484;2023-04-03T00:33:54;-1.30;99.90
4187;DHT22;2107;52.306;10.484;2023-04-03T00:36:21;-1.30;99.90
4187;DHT22;2107;52.306;10.484;2023-04-03T00:38:48;-1.40;99.90
4187;DHT22;2107;52.306;10.484;2023-04-03T00:41:16;-1.50;99.90
4187;DHT22;2107;52.306;10.484;2023-04-03T00:43:43;-1.60;99.90
4187;DHT22;2107;52.306;10.484;2023-04-03T00:46:10;-1.60;99.90
4187;DHT22;2107;52.306;10.484;2023-04-03T00:48:39;-1.60;99.90
4187;DHT22;2107;52.306;10.484;2023-04-03T00:51:10;-1.60;99.90
4187;DHT22;2107;52.306;10.484;2023-04-03T00:53:41;-1.70;99.90
4187;DHT22;2107;52.306;10.484;2023-04-03T00:56:12;-1.80;99.90
4187;DHT22;2107;52.306;10.484;2023-04-03T00:58:44;-1.80;99.90
4187;DHT22;2107;52.306;10.484;2023-04-03T01:01:16;-1.80;99.90
4187;DHT22;2107;52.306;10.484;2023-04-03T01:03:45;-1.80;99.90
4187;DHT22;2107;52.306;10.484;2023-04-03T01:06:13;-1.90;99.90
4187;DHT22;2107;52.306;10.484;2023-04-03T01:08:42;-1.90;99.90
4187;DHT22;2107;52.306;10.484;2023-04-03T01:11:09;-1.90;99.90
4187;DHT22;2107;52.306;10.484;2023-04-03T01:13:35;-1.90;99.90
4187;DHT22;2107;52.306;10.484;2023-04-03T01:16:05;-2.00;99.90
4187;DHT22;2107;52.306;10.484;2023-04-03T01:18:32;-2.10;99.90
4187;DHT22;2107;52.306;10.484;2023-04-03T01:21:28;-2.10;99.90
4187;DHT22;2107;52.306;10.484;2023-04-03T01:24:16;-2.10;99.90
4187;DHT22;2107;52.306;10.484;2023-04-03T01:26:44;-2.10;99.90
4187;DHT22;2107;52.306;10.484;2023-04-03T01:29:11;-2.10;99.90
4187;DHT22;2107;52.306;10.484;2023-04-03T01:31:50;-2.10;99.90
4187;DHT22;2107;52.306;10.484;2023-04-03T01:34:17;-2.00;99.90
4187;DHT22;2107;52.306;10.484;2023-04-03T01:36:44;-2.00;99.90
4187;DHT22;2107;52.306;10.484;2023-04-03T01:39:11;-2.10;99.90
4187;DHT22;2107;52.306;10.484;2023-04-03T01:41:38;-2.00;99.90
4187;DHT22;2107;52.306;10.484;2023-04-03T01:44:05;-2.10;99.90
4187;DHT22;2107;52.306;10.484;2023-04-03T01:46:32;-2.20;99.90
4187;DHT22;2107;52.306;10.484;2023-04-03T01:49:01;-2.20;99.90
4187;DHT22;2107;52.306;10.484;2023-04-03T01:51:28;-2.20;99.90
4187;DHT22;2107;52.306;10.484;2023-04-03T01:53:55;-2.20;99.90
4187;DHT22;2107;52.306;10.484;2023-04-03T01:56:22;-2.10;99.90
4187;DHT22;2107;52.306;10.484;2023-04-03T01:58:49;-2.20;99.90
4187;DHT22;2107;52.306;10.484;2023-04-03T02:01:16;-2.10;99.90
4187;DHT22;2107;52.306;10.484;2023-04-03T02:03:43;-2.10;99.90
4187;DHT22;2107;52.306;10.484;2023-04-03T02:06:11;-2.00;99.90
4187;DHT22;2107;52.306;10.484;2023-04-03T02:08:38;-2.00;99.90
4187;DHT22;2107;52.306;10.484;2023-04-03T02:11:05;-1.90;99.90
4187;DHT22;2107;52.306;10.484;2023-04-03T02:13:32;-1.90;99.90
4187;DHT22;2107;52.306;10.484;2023-04-03T02:16:01;-1.80;99.90
4187;DHT22;2107;52.306;10.484;2023-04-03T02:18:32;-1.80;99.90
4187;DHT22;2107;52.306;10.484;2023-04-03T02:20:58;-1.80;99.90
4187;DHT22;2107;52.306;10.484;2023-04-03T02:23:27;-1.80;99.90
4187;DHT22;2107;52.306;10.484;2023-04-03T02:26:01;-1.80;99.90
4187;DHT22;2107;52.306;10.484;2023-04-03T02:28:28;-1.90;99.90
4187;DHT22;2107;52.306;10.484;2023-04-03T02:30:55;-1.80;99.90
4187;DHT22;2107;52.306;10.484;2023-04-03T02:33:22;-1.80;99.90
4187;DHT22;2107;52.306;10.484;2023-04-03T02:35:52;-1.80;99.90
4187;DHT22;2107;52.306;10.484;2023-04-03T02:38:19;-1.80;99.90
4187;DHT22;2107;52.306;10.484;2023-04-03T02:40:48;-1.80;99.90
4187;DHT22;2107;52.306;10.484;2023-04-03T02:43:15;-1.90;99.90
4187;DHT22;2107;52.306;10.484;2023-04-03T02:45:42;-1.90;99.90
4187;DHT22;2107;52.306;10.484;2023-04-03T02:48:09;-1.90;99.90
4187;DHT22;2107;52.306;10.484;2023-04-03T02:50:36;-1.90;99.90
4187;DHT22;2107;52.306;10.484;2023-04-03T02:53:03;-2.00;99.90
4187;DHT22;2107;52.306;10.484;2023-04-03T02:55:30;-2.00;99.90
4187;DHT22;2107;52.306;10.484;2023-04-03T02:57:58;-2.00;99.90
4187;DHT22;2107;52.306;10.484;2023-04-03T03:00:25;-2.00;99.90
4187;DHT22;2107;52.306;10.484;2023-04-03T03:02:52;-2.00;99.90
4187;DHT22;2107;52.306;10.484;2023-04-03T03:05:18;-2.00;99.90
4187;DHT22;2107;52.306;10.484;2023-04-03T03:07:45;-2.00;99.90
4187;DHT22;2107;52.306;10.484;2023-04-03T03:10:12;-2.10;99.90
4187;DHT22;2107;52.306;10.484;2023-04-03T03:12:39;-2.00;99.90
4187;DHT22;2107;52.306;10.484;2023-04-03T03:15:08;-2.00;99.90
4187;DHT22;2107;52.306;10.484;2023-04-03T03:17:35;-2.00;99.90
4187;DHT22;2107;52.306;10.484;2023-04-03T03:20:02;-2.10;99.90
4187;DHT22;2107;52.306;10.484;2023-04-03T03:22:29;-2.10;99.90
4187;DHT22;2107;52.306;10.484;2023-04-03T03:24:56;-2.20;99.90
4187;DHT22;2107;52.306;10.484;2023-04-03T03:27:23;-2.20;99.90
4187;DHT22;2107;52.306;10.484;2023-04-03T03:29:50;-2.30;99.90
4187;DHT22;2107;52.306;10.484;2023-04-03T03:32:18;-2.40;99.90
4187;DHT22;2107;52.306;10.484;2023-04-03T03:34:45;-2.50;99.90
4187;DHT22;2107;52.306;10.484;2023-04-03T03:37:12;-2.50;99.90
4187;DHT22;2107;52.306;10.484;2023-04-03T03:39:39;-2.50;99.90
4187;DHT22;2107;52.306;10.484;2023-04-03T03:42:06;-2.50;99.90
4187;DHT22;2107;52.306;10.484;2023-04-03T03:44:33;-2.40;99.90
4187;DHT22;2107;52.306;10.484;2023-04-03T03:47:00;-2.40;99.90
4187;DHT22;2107;52.306;10.484;2023-04-03T03:49:28;-2.40;99.90
4187;DHT22;2107;52.306;10.484;2023-04-03T03:51:55;-2.40;99.90
4187;DHT22;2107;52.306;10.484;2023-04-03T03:54:22;-2.50;99.90
4187;DHT22;2107;52.306;10.484;2023-04-03T03:56:48;-2.50;99.90
4187;DHT22;2107;52.306;10.484;2023-04-03T03:59:15;-2.40;99.90
4187;DHT22;2107;52.306;10.484;2023-04-03T04:01:42;-2.40;99.90
4187;DHT22;2107;52.306;10.484;2023-04-03T04:04:09;-2.40;99.90
4187;DHT22;2107;52.306;10.484;2023-04-03T04:06:38;-2.50;99.90
4187;DHT22;2107;52.306;10.484;2023-04-03T04:09:04;-2.60;99.90
4187;DHT22;2107;52.306;10.484;2023-04-03T04:11:31;-2.60;99.90
4187;DHT22;2107;52.306;10.484;2023-04-03T04:13:58;-2.60;99.90
4187;DHT22;2107;52.306;10.484;2023-04-03T04:16:25;-2.60;99.90
4187;DHT22;2107;52.306;10.484;2023-04-03T04:18:52;-2.70;99.90
4187;DHT22;2107;52.306;10.484;2023-04-03T04:21:19;-2.70;99.90
4187;DHT22;2107;52.306;10.484;2023-04-03T04:23:47;-2.70;99.90
4187;DHT22;2107;52.306;10.484;2023-04-03T04:26:14;-2.60;99.90
4187;DHT22;2107;52.306;10.484;2023-04-03T04:28:41;-2.50;99.90
4187;DHT22;2107;52.306;10.484;2023-04-03T04:31:08;-2.50;99.90
4187;DHT22;2107;52.306;10.484;2023-04-03T04:33:34;-2.50;99.90
4187;DHT22;2107;52.306;10.484;2023-04-03T04:36:01;-2.50;99.90
4187;DHT22;2107;52.306;10.484;2023-04-03T04:38:28;-2.60;99.90
4187;DHT22;2107;52.306;10.484;2023-04-03T04:40:57;-2.60;99.90
4187;DHT22;2107;52.306;10.484;2023-04-03T04:43:23;-2.60;99.90
4187;DHT22;2107;52.306;10.484;2023-04-03T04:46:00;-2.70;99.90
4187;DHT22;2107;52.306;10.484;2023-04-03T04:48:28;-2.60;99.90
4187;DHT22;2107;52.306;10.484;2023-04-03T04:50:55;-2.50;99.90
4187;DHT22;2107;52.306;10.484;2023-04-03T04:53:21;-2.60;99.90
4187;DHT22;2107;52.306;10.484;2023-04-03T04:55:48;-2.50;99.90
4187;DHT22;2107;52.306;10.484;2023-04-03T04:58:17;-2.50;99.90
4187;DHT22;2107;52.306;10.484;2023-04-03T05:00:44;-2.50;99.90
4187;DHT22;2107;52.306;10.484;2023-04-03T05:03:11;-2.50;99.90
4187;DHT22;2107;52.306;10.484;2023-04-03T05:05:38;-2.40;99.90
4187;DHT22;2107;52.306;10.484;2023-04-03T05:08:05;-2.20;99.90
4187;DHT22;2107;52.306;10.484;2023-04-03T05:10:34;-2.10;99.90
4187;DHT22;2107;52.306;10.484;2023-04-03T05:13:01;-2.10;99.90
4187;DHT22;2107;52.306;10.484;2023-04-03T05:15:29;-2.00;99.90
4187;DHT22;2107;52.306;10.484;2023-04-03T05:17:56;-1.90;99.90
4187;DHT22;2107;52.306;10.484;2023-04-03T05:20:23;-1.60;99.90
4187;DHT22;2107;52.306;10.484;2023-04-03T05:22:50;-1.40;99.90
4187;DHT22;2107;52.306;10.484;2023-04-03T05:25:17;-1.20;99.90
4187;DHT22;2107;52.306;10.484;2023-04-03T05:27:44;-1.00;99.90
4187;DHT22;2107;52.306;10.484;2023-04-03T05:30:11;-0.80;99.90
4187;DHT22;2107;52.306;10.484;2023-04-03T05:32:40;-0.60;99.90
4187;DHT22;2107;52.306;10.484;2023-04-03T05:35:08;-0.50;99.90
4187;DHT22;2107;52.306;10.484;2023-04-03T05:37:35;-0.30;99.90
4187;DHT22;2107;52.306;10.484;2023-04-03T05:40:02;-0.10;99.90
4187;DHT22;2107;52.306;10.484;2023-04-03T05:42:29;0.00;99.90
4187;DHT22;2107;52.306;10.484;2023-04-03T05:44:56;0.20;99.90
4187;DHT22;2107;52.306;10.484;2023-04-03T05:47:23;0.30;99.90
4187;DHT22;2107;52.306;10.484;2023-04-03T05:49:51;0.70;99.90
4187;DHT22;2107;52.306;10.484;2023-04-03T05:52:21;0.80;99.90
4187;DHT22;2107;52.306;10.484;2023-04-03T05:54:49;1.10;99.90
4187;DHT22;2107;52.306;10.484;2023-04-03T05:57:16;1.30;99.90
4187;DHT22;2107;52.306;10.484;2023-04-03T05:59:43;1.60;99.90
4187;DHT22;2107;52.306;10.484;2023-04-03T06:02:12;1.50;99.90
4187;DHT22;2107;52.306;10.484;2023-04-03T06:04:39;1.80;99.90
4187;DHT22;2107;52.306;10.484;2023-04-03T06:07:10;2.00;99.90
4187;DHT22;2107;52.306;10.484;2023-04-03T06:09:37;2.10;99.90
4187;DHT22;2107;52.306;10.484;2023-04-03T06:12:04;2.30;99.90
4187;DHT22;2107;52.306;10.484;2023-04-03T06:14:31;2.50;99.90
4187;DHT22;2107;52.306;10.484;2023-04-03T06:16:58;2.70;99.90
4187;DHT22;2107;52.306;10.484;2023-04-03T06:19:25;2.90;99.90
4187;DHT22;2107;52.306;10.484;2023-04-03T06:21:52;3.00;99.90
4187;DHT22;2107;52.306;10.484;2023-04-03T06:24:21;3.00;99.90
4187;DHT22;2107;52.306;10.484;2023-04-03T06:26:50;3.20;99.90
4187;DHT22;2107;52.306;10.484;2023-04-03T06:29:18;3.20;99.90
4187;DHT22;2107;52.306;10.484;2023-04-03T06:31:45;3.50;99.90
4187;DHT22;2107;52.306;10.484;2023-04-03T06:34:12;3.60;99.90
4187;DHT22;2107;52.306;10.484;2023-04-03T06:36:39;3.80;99.90
4187;DHT22;2107;52.306;10.484;2023-04-03T06:39:06;3.90;99.90
4187;DHT22;2107;52.306;10.484;2023-04-03T06:41:35;4.00;99.90
4187;DHT22;2107;52.306;10.484;2023-04-03T06:44:02;4.10;99.90
4187;DHT22;2107;52.306;10.484;2023-04-03T06:46:29;4.30;99.90
4187;DHT22;2107;52.306;10.484;2023-04-03T06:48:56;4.40;99.90
4187;DHT22;2107;52.306;10.484;2023-04-03T06:51:25;4.70;99.90
4187;DHT22;2107;52.306;10.484;2023-04-03T06:53:53;4.80;99.90
4187;DHT22;2107;52.306;10.484;2023-04-03T06:56:21;5.00;99.90
4187;DHT22;2107;52.306;10.484;2023-04-03T06:58:50;4.90;99.90
4187;DHT22;2107;52.306;10.484;2023-04-03T07:01:18;5.10;99.90
4187;DHT22;2107;52.306;10.484;2023-04-03T07:03:45;5.30;99.90
4187;DHT22;2107;52.306;10.484;2023-04-03T07:06:14;5.30;99.90
4187;DHT22;2107;52.306;10.484;2023-04-03T07:08:42;5.50;99.90
4187;DHT22;2107;52.306;10.484;2023-04-03T07:11:10;5.50;99.90
4187;DHT22;2107;52.306;10.484;2023-04-03T07:13:37;5.60;99.90
4187;DHT22;2107;52.306;10.484;2023-04-03T07:16:06;5.80;99.90
4187;DHT22;2107;52.306;10.484;2023-04-03T07:18:33;6.10;99.90
4187;DHT22;2107;52.306;10.484;2023-04-03T07:21:01;6.00;99.90
4187;DHT22;2107;52.306;10.484;2023-04-03T07:23:28;5.60;99.90
4187;DHT22;2107;52.306;10.484;2023-04-03T07:25:55;5.90;99.90
4187;DHT22;2107;52.306;10.484;2023-04-03T07:28:23;6.20;99.90
4187;DHT22;2107;52.306;10.484;2023-04-03T07:30:51;6.00;99.90
4187;DHT22;2107;52.306;10.484;2023-04-03T07:33:21;6.20;99.90
4187;DHT22;2107;52.306;10.484;2023-04-03T07:35:48;6.30;99.90
4187;DHT22;2107;52.306;10.484;2023-04-03T07:38:15;6.60;99.90
4187;DHT22;2107;52.306;10.484;2023-04-03T07:40:46;6.60;99.90
4187;DHT22;2107;52.306;10.484;2023-04-03T07:43:13;7.00;99.90
4187;DHT22;2107;52.306;10.484;2023-04-03T07:45:41;7.30;99.90
4187;DHT22;2107;52.306;10.484;2023-04-03T07:48:08;7.30;99.90
4187;DHT22;2107;52.306;10.484;2023-04-03T07:50:37;7.70;99.90
4187;DHT22;2107;52.306;10.484;2023-04-03T07:53:06;7.70;99.90
4187;DHT22;2107;52.306;10.484;2023-04-03T07:55:33;7.80;99.90
4187;DHT22;2107;52.306;10.484;2023-04-03T07:58:02;7.90;99.90
4187;DHT22;2107;52.306;10.484;2023-04-03T08:00:30;8.00;99.90
4187;DHT22;2107;52.306;10.484;2023-04-03T08:02:57;8.00;99.90
4187;DHT22;2107;52.306;10.484;2023-04-03T08:05:23;8.10;99.90
4187;DHT22;2107;52.306;10.484;2023-04-03T08:07:52;8.50;99.90
4187;DHT22;2107;52.306;10.484;2023-04-03T08:10:19;8.30;99.90
4187;DHT22;2107;52.306;10.484;2023-04-03T08:12:46;7.50;99.90
4187;DHT22;2107;52.306;10.484;2023-04-03T08:15:13;8.10;99.90
4187;DHT22;2107;52.306;10.484;2023-04-03T08:17:40;8.60;99.90
4187;DHT22;2107;52.306;10.484;2023-04-03T08:20:09;9.10;99.90
4187;DHT22;2107;52.306;10.484;2023-04-03T08:22:36;9.60;99.90
4187;DHT22;2107;52.306;10.484;2023-04-03T08:25:05;9.90;98.90
4187;DHT22;2107;52.306;10.484;2023-04-03T08:27:32;9.40;96.60
4187;DHT22;2107;52.306;10.484;2023-04-03T08:29:59;9.70;97.00
4187;DHT22;2107;52.306;10.484;2023-04-03T08:32:25;8.00;92.10
4187;DHT22;2107;52.306;10.484;2023-04-03T08:34:53;8.80;95.00
4187;DHT22;2107;52.306;10.484;2023-04-03T08:37:20;9.40;94.30
4187;DHT22;2107;52.306;10.484;2023-04-03T08:39:46;9.50;92.20
4187;DHT22;2107;52.306;10.484;2023-04-03T08:42:24;9.10;91.60
4187;DHT22;2107;52.306;10.484;2023-04-03T08:45:01;8.80;90.90
4187;DHT22;2107;52.306;10.484;2023-04-03T08:47:34;8.70;87.50
4187;DHT22;2107;52.306;10.484;2023-04-03T08:50:06;8.60;86.10
4187;DHT22;2107;52.306;10.484;2023-04-03T08:52:37;8.80;84.50
4187;DHT22;2107;52.306;10.484;2023-04-03T08:55:12;8.20;87.40
4187;DHT22;2107;52.306;10.484;2023-04-03T08:57:44;8.90;84.80
4187;DHT22;2107;52.306;10.484;2023-04-03T09:00:18;9.20;83.60
4187;DHT22;2107;52.306;10.484;2023-04-03T09:02:46;8.90;83.00
4187;DHT22;2107;52.306;10.484;2023-04-03T09:05:15;9.00;81.20
4187;DHT22;2107;52.306;10.484;2023-04-03T09:07:45;8.60;79.70
4187;DHT22;2107;52.306;10.484;2023-04-03T09:10:15;8.10;83.80
4187;DHT22;2107;52.306;10.484;2023-04-03T09:12:46;8.30;81.40
4187;DHT22;2107;52.306;10.484;2023-04-03T09:15:18;8.10;79.80
4187;DHT22;2107;52.306;10.484;2023-04-03T09:17:59;7.80;81.30
4187;DHT22;2107;52.306;10.484;2023-04-03T09:20:38;7.40;78.10
4187;DHT22;2107;52.306;10.484;2023-04-03T09:23:15;7.20;79.30
4187;DHT22;2107;52.306;10.484;2023-04-03T09:25:43;7.40;80.70
4187;DHT22;2107;52.306;10.484;2023-04-03T09:28:12;7.50;78.40
4187;DHT22;2107;52.306;10.484;2023-04-03T09:30:39;7.10;83.00
4187;DHT22;2107;52.306;10.484;2023-04-03T09:33:07;6.90;83.60
4187;DHT22;2107;52.306;10.484;2023-04-03T09:35:35;6.50;83.50
4187;DHT22;2107;52.306;10.484;2023-04-03T09:38:16;7.00;84.10
4187;DHT22;2107;52.306;10.484;2023-04-03T09:40:45;7.40;83.40
4187;DHT22;2107;52.306;10.484;2023-04-03T09:43:28;7.00;80.40
4187;DHT22;2107;52.306;10.484;2023-04-03T09:48:50;6.60;83.50
4187;DHT22;2107;52.306;10.484;2023-04-03T09:51:17;6.50;82.90
4187;DHT22;2107;52.306;10.484;2023-04-03T09:53:45;7.00;82.80
4187;DHT22;2107;52.306;10.484;2023-04-03T09:56:20;7.50;81.90
4187;DHT22;2107;52.306;10.484;2023-04-03T09:58:50;8.30;81.80
4187;DHT22;2107;52.306;10.484;2023-04-03T10:01:23;8.10;81.30
4187;DHT22;2107;52.306;10.484;2023-04-03T10:04:07;7.50;83.30
4187;DHT22;2107;52.306;10.484;2023-04-03T10:06:36;7.50;84.20
4187;DHT22;2107;52.306;10.484;2023-04-03T10:09:15;7.40;82.70
4187;DHT22;2107;52.306;10.484;2023-04-03T10:11:58;7.30;82.50
4187;DHT22;2107;52.306;10.484;2023-04-03T10:14:26;6.70;81.80
4187;DHT22;2107;52.306;10.484;2023-04-03T10:16:59;6.90;84.10
4187;DHT22;2107;52.306;10.484;2023-04-03T10:19:36;6.70;82.60
4187;DHT22;2107;52.306;10.484;2023-04-03T10:22:16;6.70;82.80
4187;DHT22;2107;52.306;10.484;2023-04-03T10:24:51;6.50;84.00
4187;DHT22;2107;52.306;10.484;2023-04-03T10:27:26;6.60;85.70
4187;DHT22;2107;52.306;10.484;2023-04-03T10:30:01;6.70;87.30
4187;DHT22;2107;52.306;10.484;2023-04-03T10:32:46;6.70;86.10
4187;DHT22;2107;52.306;10.484;2023-04-03T10:35:20;6.70;85.30
4187;DHT22;2107;52.306;10.484;2023-04-03T10:37:59;6.80;84.80
4187;DHT22;2107;52.306;10.484;2023-04-03T10:40:31;6.90;84.90
4187;DHT22;2107;52.306;10.484;2023-04-03T10:43:06;6.90;83.20
4187;DHT22;2107;52.306;10.484;2023-04-03T10:45:52;7.10;83.30
4187;DHT22;2107;52.306;10.484;2023-04-03T10:48:31;6.80;78.80
4187;DHT22;2107;52.306;10.484;2023-04-03T10:51:11;6.70;79.20
4187;DHT22;2107;52.306;10.484;2023-04-03T10:53:45;6.70;77.70
4187;DHT22;2107;52.306;10.484;2023-04-03T10:56:18;6.70;78.80
4187;DHT22;2107;52.306;10.484;2023-04-03T10:58:52;6.90;80.00
4187;DHT22;2107;52.306;10.484;2023-04-03T11:01:26;7.70;80.10
4187;DHT22;2107;52.306;10.484;2023-04-03T11:03:56;8.10;74.40
4187;DHT22;2107;52.306;10.484;2023-04-03T11:06:26;7.80;73.20
4187;DHT22;2107;52.306;10.484;2023-04-03T11:08:57;7.40;73.80
4187;DHT22;2107;52.306;10.484;2023-04-03T11:11:31;7.50;75.30
4187;DHT22;2107;52.306;10.484;2023-04-03T11:14:03;8.20;72.90
4187;DHT22;2107;52.306;10.484;2023-04-03T11:16:36;8.80;72.30
4187;DHT22;2107;52.306;10.484;2023-04-03T11:19:13;9.50;70.40
4187;DHT22;2107;52.306;10.484;2023-04-03T11:21:43;9.60;65.50
4187;DHT22;2107;52.306;10.484;2023-04-03T11:24:19;9.20;61.40
4187;DHT22;2107;52.306;10.484;2023-04-03T11:26:49;8.90;63.00
4187;DHT22;2107;52.306;10.484;2023-04-03T11:29:22;8.50;64.20
4187;DHT22;2107;52.306;10.484;2023-04-03T11:32:05;8.20;66.90
4187;DHT22;2107;52.306;10.484;2023-04-03T11:34:38;8.90;66.50
4187;DHT22;2107;52.306;10.484;2023-04-03T11:37:14;9.20;66.40
4187;DHT22;2107;52.306;10.484;2023-04-03T11:39:51;8.90;66.80
4187;DHT22;2107;52.306;10.484;2023-04-03T11:42:27;9.00;66.90
4187;DHT22;2107;52.306;10.484;2023-04-03T11:48:01;8.80;66.80
4187;DHT22;2107;52.306;10.484;2023-04-03T11:50:41;8.90;68.50
4187;DHT22;2107;52.306;10.484;2023-04-03T11:53:32;8.60;72.00
4187;DHT22;2107;52.306;10.484;2023-04-03T11:59:15;8.40;72.20
4187;DHT22;2107;52.306;10.484;2023-04-03T12:01:46;8.90;74.50
4187;DHT22;2107;52.306;10.484;2023-04-03T12:04:15;8.90;72.20
4187;DHT22;2107;52.306;10.484;2023-04-03T12:09:58;8.90;70.20
4187;DHT22;2107;52.306;10.484;2023-04-03T12:12:36;9.80;69.50
4187;DHT22;2107;52.306;10.484;2023-04-03T12:19:00;10.10;63.00
4187;DHT22;2107;52.306;10.484;2023-04-03T12:22:10;10.10;59.20
4187;DHT22;2107;52.306;10.484;2023-04-03T12:24:38;10.20;61.30
4187;DHT22;2107;52.306;10.484;2023-04-03T12:27:17;10.30;61.50
4187;DHT22;2107;52.306;10.484;2023-04-03T12:29:48;10.10;60.00
4187;DHT22;2107;52.306;10.484;2023-04-03T12:32:26;9.40;59.50
4187;DHT22;2107;52.306;10.484;2023-04-03T12:35:08;9.40;60.20
4187;DHT22;2107;52.306;10.484;2023-04-03T12:37:54;9.70;62.10
4187;DHT22;2107;52.306;10.484;2023-04-03T12:40:26;10.70;63.40
4187;DHT22;2107;52.306;10.484;2023-04-03T12:45:48;9.70;62.70
4187;DHT22;2107;52.306;10.484;2023-04-03T12:48:22;8.50;65.40
4187;DHT22;2107;52.306;10.484;2023-04-03T12:50:52;8.30;67.30
4187;DHT22;2107;52.306;10.484;2023-04-03T12:53:22;8.90;67.10
4187;DHT22;2107;52.306;10.484;2023-04-03T12:55:54;9.70;64.80
4187;DHT22;2107;52.306;10.484;2023-04-03T12:58:23;9.70;62.70
4187;DHT22;2107;52.306;10.484;2023-04-03T13:01:01;9.40;64.40
4187;DHT22;2107;52.306;10.484;2023-04-03T13:03:29;8.70;62.80
4187;DHT22;2107;52.306;10.484;2023-04-03T13:06:00;8.50;66.10
4187;DHT22;2107;52.306;10.484;2023-04-03T13:08:28;8.80;65.70
4187;DHT22;2107;52.306;10.484;2023-04-03T13:10:58;9.10;63.90
4187;DHT22;2107;52.306;10.484;2023-04-03T13:13:25;9.10;62.00
4187;DHT22;2107;52.306;10.484;2023-04-03T13:15:53;9.50;61.20
4187;DHT22;2107;52.306;10.484;2023-04-03T13:18:31;9.80;60.20
4187;DHT22;2107;52.306;10.484;2023-04-03T13:21:02;9.50;62.70
4187;DHT22;2107;52.306;10.484;2023-04-03T13:23:35;9.70;60.90
4187;DHT22;2107;52.306;10.484;2023-04-03T13:26:03;10.10;63.80
4187;DHT22;2107;52.306;10.484;2023-04-03T13:28:32;10.70;60.80
4187;DHT22;2107;52.306;10.484;2023-04-03T13:31:04;10.40;61.30
4187;DHT22;2107;52.306;10.484;2023-04-03T13:33:33;10.90;62.10
4187;DHT22;2107;52.306;10.484;2023-04-03T13:36:05;10.80;58.00
4187;DHT22;2107;52.306;10.484;2023-04-03T13:38:35;9.50;57.40
4187;DHT22;2107;52.306;10.484;2023-04-03T13:41:04;10.60;58.80
4187;DHT22;2107;52.306;10.484;2023-04-03T13:43:33;11.50;58.70
4187;DHT22;2107;52.306;10.484;2023-04-03T13:46:04;13.30;56.90
4187;DHT22;2107;52.306;10.484;2023-04-03T13:48:37;14.10;55.50
4187;DHT22;2107;52.306;10.484;2023-04-03T13:51:12;14.40;52.10
4187;DHT22;2107;52.306;10.484;2023-04-03T13:53:46;14.30;51.00
4187;DHT22;2107;52.306;10.484;2023-04-03T13:56:19;13.10;51.10
4187;DHT22;2107;52.306;10.484;2023-04-03T13:59:00;11.20;52.80
4187;DHT22;2107;52.306;10.484;2023-04-03T14:01:35;10.30;54.90
4187;DHT22;2107;52.306;10.484;2023-04-03T14:04:12;9.30;55.90
4187;DHT22;2107;52.306;10.484;2023-04-03T14:06:39;9.30;57.20
4187;DHT22;2107;52.306;10.484;2023-04-03T14:09:08;10.00;55.90
4187;DHT22;2107;52.306;10.484;2023-04-03T14:11:35;10.50;54.20
4187;DHT22;2107;52.306;10.484;2023-04-03T14:14:05;10.90;54.50
4187;DHT22;2107;52.306;10.484;2023-04-03T14:16:38;10.30;52.40
4187;DHT22;2107;52.306;10.484;2023-04-03T14:19:05;10.00;53.70
4187;DHT22;2107;52.306;10.484;2023-04-03T14:21:32;10.90;54.60
4187;DHT22;2107;52.306;10.484;2023-04-03T14:23:58;13.20;52.80
4187;DHT22;2107;52.306;10.484;2023-04-03T14:26:28;13.80;50.70
4187;DHT22;2107;52.306;10.484;2023-04-03T14:28:56;12.60;51.10
4187;DHT22;2107;52.306;10.484;2023-04-03T14:31:23;10.50;52.10
4187;DHT22;2107;52.306;10.484;2023-04-03T14:33:50;9.30;56.00
4187;DHT22;2107;52.306;10.484;2023-04-03T14:36:20;8.80;56.40
4187;DHT22;2107;52.306;10.484;2023-04-03T14:38:48;10.40;56.70
4187;DHT22;2107;52.306;10.484;2023-04-03T14:41:18;11.70;52.30
4187;DHT22;2107;52.306;10.484;2023-04-03T14:43:47;12.70;51.00
4187;DHT22;2107;52.306;10.484;2023-04-03T14:46:17;12.40;48.10
4187;DHT22;2107;52.306;10.484;2023-04-03T14:48:45;13.30;51.60
4187;DHT22;2107;52.306;10.484;2023-04-03T14:51:13;13.80;48.50
4187;DHT22;2107;52.306;10.484;2023-04-03T14:53:41;14.40;47.70
4187;DHT22;2107;52.306;10.484;2023-04-03T14:56:12;14.80;48.20
4187;DHT22;2107;52.306;10.484;2023-04-03T14:58:39;14.60;47.70
4187;DHT22;2107;52.306;10.484;2023-04-03T15:01:09;12.70;47.10
4187;DHT22;2107;52.306;10.484;2023-04-03T15:03:37;10.90;48.60
4187;DHT22;2107;52.306;10.484;2023-04-03T15:06:04;8.90;53.00
4187;DHT22;2107;52.306;10.484;2023-04-03T15:08:31;8.20;55.40
4187;DHT22;2107;52.306;10.484;2023-04-03T15:10:58;7.90;57.20
4187;DHT22;2107;52.306;10.484;2023-04-03T15:13:26;8.90;56.80
4187;DHT22;2107;52.306;10.484;2023-04-03T15:15:54;10.70;52.50
4187;DHT22;2107;52.306;10.484;2023-04-03T15:18:25;12.40;50.80
4187;DHT22;2107;52.306;10.484;2023-04-03T15:20:54;11.70;47.30
4187;DHT22;2107;52.306;10.484;2023-04-03T15:23:24;11.00;46.60
4187;DHT22;2107;52.306;10.484;2023-04-03T15:25:54;9.50;50.00
4187;DHT22;2107;52.306;10.484;2023-04-03T15:28:23;9.00;51.40
4187;DHT22;2107;52.306;10.484;2023-04-03T15:30:52;10.40;50.50
4187;DHT22;2107;52.306;10.484;2023-04-03T15:33:19;12.80;49.80
4187;DHT22;2107;52.306;10.484;2023-04-03T15:35:47;14.60;48.60
4187;DHT22;2107;52.306;10.484;2023-04-03T15:38:15;13.50;44.60
4187;DHT22;2107;52.306;10.484;2023-04-03T15:40:43;12.20;46.20
4187;DHT22;2107;52.306;10.484;2023-04-03T15:43:13;10.70;48.90
4187;DHT22;2107;52.306;10.484;2023-04-03T15:45:40;9.10;52.60
4187;DHT22;2107;52.306;10.484;2023-04-03T15:48:08;8.30;55.00
4187;DHT22;2107;52.306;10.484;2023-04-03T15:50:36;7.70;56.70
4187;DHT22;2107;52.306;10.484;2023-04-03T15:53:05;7.50;56.40
4187;DHT22;2107;52.306;10.484;2023-04-03T15:55:33;7.50;58.00
4187;DHT22;2107;52.306;10.484;2023-04-03T15:58:01;7.50;58.20
4187;DHT22;2107;52.306;10.484;2023-04-03T16:00:29;7.50;58.70
4187;DHT22;2107;52.306;10.484;2023-04-03T16:02:59;7.40;58.40
4187;DHT22;2107;52.306;10.484;2023-04-03T16:05:27;7.20;56.60
4187;DHT22;2107;52.306;10.484;2023-04-03T16:07:54;7.30;56.60
4187;DHT22;2107;52.306;10.484;2023-04-03T16:10:22;7.10;54.50
4187;DHT22;2107;52.306;10.484;2023-04-03T16:12:49;7.10;55.60
4187;DHT22;2107;52.306;10.484;2023-04-03T16:15:16;6.80;54.60
4187;DHT22;2107;52.306;10.484;2023-04-03T16:17:43;6.70;55.00
4187;DHT22;2107;52.306;10.484;2023-04-03T16:20:11;6.50;56.20
4187;DHT22;2107;52.306;10.484;2023-04-03T16:22:39;6.30;56.80
4187;DHT22;2107;52.306;10.484;2023-04-03T16:25:07;6.20;57.40
4187;DHT22;2107;52.306;10.484;2023-04-03T16:27:36;6.20;58.00
4187;DHT22;2107;52.306;10.484;2023-04-03T16:30:04;6.20;57.80